Time;durP1;ratioP1;P1;durP2;ratioP2;P2;SDS_P1;SDS_P2;PMS_P1;PMS_P2;Temp;Humidity;BMP_temperature;BMP_pressure;BME280_temperature;BME280_humidity;BME280_pressure;Samples;Min_cycle;Max_cycle;Signal;HPM_P1;HPM_P2
2022/04/12 00:00:33;;;;;;;10.18;3.60;;;;;;;;;;5027283;28;20245;-63
2022/04/12 00:02:58;;;;;;;7.05;3.40;;;;;;;;;;5027816;28;20131;-63
2022/04/12 00:05:24;;;;;;;8.63;3.50;;;;;;;;;;5017490;28;20463;-63
2022/04/12 00:07:49;;;;;;;6.15;3.35;;;;;;;;;;5030310;28;20044;-63
2022/04/12 00:10:15;;;;;;;5.78;3.60;;;;;;;;;;5027683;28;20033;-63
2022/04/12 00:12:42;;;;;;;8.25;3.80;;;;;;;;;;5022386;28;20036;-63
2022/04/12 00:15:09;;;;;;;9.85;3.80;;;;;;;;;;5024920;28;20097;-63
2022/04/12 00:20:20;;;;;;;7.50;4.00;;;;;;;;;;5017753;28;20063;-62
2022/04/12 00:22:47;;;;;;;6.97;3.83;;;;;;;;;;5029303;28;20021;-63
2022/04/12 00:25:12;;;;;;;6.75;3.90;;;;;;;;;;5017719;28;20045;-63
2022/04/12 00:27:40;;;;;;;7.35;4.00;;;;;;;;;;5014882;28;20379;-63
2022/04/12 00:30:07;;;;;;;6.78;3.83;;;;;;;;;;5027699;28;20485;-63
2022/04/12 00:32:33;;;;;;;8.02;4.20;;;;;;;;;;5027057;28;20128;-63
2022/04/12 00:34:59;;;;;;;9.70;4.20;;;;;;;;;;5023925;28;20116;-63
2022/04/12 00:37:25;;;;;;;6.88;3.97;;;;;;;;;;5028989;28;20467;-63
2022/04/12 00:39:50;;;;;;;7.57;4.25;;;;;;;;;;5011567;28;20030;-63
2022/04/12 00:42:16;;;;;;;6.30;3.83;;;;;;;;;;5024513;28;20112;-63
2022/04/12 00:44:41;;;;;;;5.88;3.78;;;;;;;;;;5024831;28;20026;-63
2022/04/12 00:47:07;;;;;;;7.90;4.20;;;;;;;;;;5028290;28;20057;-63
2022/04/12 00:49:32;;;;;;;9.80;3.85;;;;;;;;;;5014570;28;20471;-63
2022/04/12 00:51:59;;;;;;;7.88;4.35;;;;;;;;;;5028682;28;20092;-63
2022/04/12 00:54:25;;;;;;;10.35;4.28;;;;;;;;;;5029050;28;20030;-63
2022/04/12 00:56:52;;;;;;;9.32;3.95;;;;;;;;;;5017933;28;20034;-63
2022/04/12 00:59:18;;;;;;;8.52;4.38;;;;;;;;;;5019787;28;20107;-63
2022/04/12 01:01:44;;;;;;;7.95;4.55;;;;;;;;;;5031016;28;20033;-63
2022/04/12 01:04:09;;;;;;;6.97;4.15;;;;;;;;;;5017798;28;20037;-63
2022/04/12 01:06:36;;;;;;;10.20;4.75;;;;;;;;;;5030163;28;20065;-62
2022/04/12 01:09:04;;;;;;;7.20;4.22;;;;;;;;;;5014224;28;20040;-63
2022/04/12 01:11:30;;;;;;;7.90;4.78;;;;;;;;;;5013508;28;20121;-62
2022/04/12 01:13:55;;;;;;;8.25;4.60;;;;;;;;;;5013461;28;20109;-63
2022/04/12 01:16:21;;;;;;;7.03;4.13;;;;;;;;;;5028382;28;20021;-63
2022/04/12 01:18:46;;;;;;;7.80;4.40;;;;;;;;;;5025771;28;20030;-64
2022/04/12 01:21:12;;;;;;;7.10;4.88;;;;;;;;;;5029193;28;20052;-64
2022/04/12 01:24:02;;;;;;;8.88;4.45;;;;;;;;;;5022342;28;20540;-63
2022/04/12 01:26:27;;;;;;;8.02;4.55;;;;;;;;;;5027076;28;20506;-63
2022/04/12 01:28:53;;;;;;;13.25;5.15;;;;;;;;;;5022574;28;20029;-63
2022/04/12 01:31:18;;;;;;;8.10;4.93;;;;;;;;;;5018481;28;20026;-63
2022/04/12 01:33:43;;;;;;;8.85;4.72;;;;;;;;;;5020494;28;20060;-63
2022/04/12 01:36:09;;;;;;;8.93;5.05;;;;;;;;;;5025482;28;20046;-63
2022/04/12 01:38:34;;;;;;;7.70;4.93;;;;;;;;;;5023599;28;20033;-63
2022/04/12 01:41:00;;;;;;;10.00;4.97;;;;;;;;;;5028733;28;20025;-63
2022/04/12 01:43:25;;;;;;;9.00;5.00;;;;;;;;;;5023442;28;20069;-63
2022/04/12 01:45:51;;;;;;;10.52;5.00;;;;;;;;;;5023779;28;20060;-63
2022/04/12 01:48:16;;;;;;;8.88;5.03;;;;;;;;;;5025973;28;20037;-64
2022/04/12 01:50:42;;;;;;;8.05;4.90;;;;;;;;;;5021932;28;20097;-63
2022/04/12 01:53:07;;;;;;;7.75;4.60;;;;;;;;;;5019653;28;20391;-63
2022/04/12 01:55:32;;;;;;;12.82;5.38;;;;;;;;;;5028460;28;20034;-63
2022/04/12 01:57:58;;;;;;;7.22;4.78;;;;;;;;;;5023756;28;20068;-63
2022/04/12 02:00:23;;;;;;;10.25;5.53;;;;;;;;;;5022044;28;20108;-63
2022/04/12 02:02:49;;;;;;;9.40;5.07;;;;;;;;;;5019368;28;20041;-63
2022/04/12 02:05:14;;;;;;;9.48;5.30;;;;;;;;;;5024470;28;20060;-63
2022/04/12 02:07:43;;;;;;;9.50;5.55;;;;;;;;;;5033063;28;20033;-63
2022/04/12 02:10:09;;;;;;;12.70;5.38;;;;;;;;;;5033030;28;20482;-63
2022/04/12 02:12:35;;;;;;;9.75;5.50;;;;;;;;;;5027367;28;20502;-63
2022/04/12 02:15:00;;;;;;;8.13;5.15;;;;;;;;;;5015068;28;20111;-64
2022/04/12 02:17:26;;;;;;;10.50;5.43;;;;;;;;;;5015493;28;20363;-63
2022/04/12 02:19:51;;;;;;;11.40;5.90;;;;;;;;;;5017573;28;20031;-63
2022/04/12 02:22:16;;;;;;;10.88;5.90;;;;;;;;;;5031019;28;20056;-63
2022/04/12 02:24:42;;;;;;;11.00;5.80;;;;;;;;;;5031870;28;20388;-62
2022/04/12 02:27:07;;;;;;;10.48;5.72;;;;;;;;;;5031804;28;20041;-63
2022/04/12 02:29:32;;;;;;;9.27;5.43;;;;;;;;;;5030529;28;20133;-63
2022/04/12 02:31:58;;;;;;;11.85;5.47;;;;;;;;;;5026602;28;20068;-63
2022/04/12 02:34:23;;;;;;;8.93;5.32;;;;;;;;;;5032360;28;20040;-63
2022/04/12 02:36:49;;;;;;;8.05;5.68;;;;;;;;;;5023099;28;20042;-63
2022/04/12 02:39:15;;;;;;;13.13;5.88;;;;;;;;;;5026625;28;20087;-63
2022/04/12 02:41:40;;;;;;;10.80;5.88;;;;;;;;;;5023061;28;20058;-63
2022/04/12 02:44:06;;;;;;;10.80;5.75;;;;;;;;;;5012513;28;20040;-63
2022/04/12 02:46:31;;;;;;;10.00;5.72;;;;;;;;;;5023759;28;20518;-63
2022/04/12 02:48:57;;;;;;;13.10;5.65;;;;;;;;;;5023110;28;20109;-63
2022/04/12 02:51:22;;;;;;;10.55;5.80;;;;;;;;;;5013044;28;20029;-63
2022/04/12 02:53:48;;;;;;;12.30;6.13;;;;;;;;;;5022022;28;20033;-63
2022/04/12 02:56:13;;;;;;;10.75;6.00;;;;;;;;;;5026511;28;20383;-63
2022/04/12 02:58:39;;;;;;;12.05;6.13;;;;;;;;;;5013654;28;20460;-63
2022/04/12 03:01:05;;;;;;;12.07;5.75;;;;;;;;;;5012039;28;20049;-63
2022/04/12 03:03:30;;;;;;;11.15;6.40;;;;;;;;;;5024500;28;20463;-63
2022/04/12 03:05:55;;;;;;;12.38;6.63;;;;;;;;;;5030162;28;20041;-63
2022/04/12 03:08:22;;;;;;;9.75;5.80;;;;;;;;;;5032220;28;20041;-63
2022/04/12 03:10:48;;;;;;;10.63;5.90;;;;;;;;;;5018231;28;20049;-62
2022/04/12 03:13:13;;;;;;;10.05;5.85;;;;;;;;;;5029115;28;20021;-63
2022/04/12 03:15:38;;;;;;;10.63;6.22;;;;;;;;;;5026109;28;20032;-63
2022/04/12 03:18:04;;;;;;;11.30;6.25;;;;;;;;;;5021056;28;20416;-63
2022/04/12 03:20:29;;;;;;;13.07;6.70;;;;;;;;;;5029873;28;20410;-63
2022/04/12 03:22:55;;;;;;;11.10;6.45;;;;;;;;;;5032930;28;20029;-63
2022/04/12 03:25:20;;;;;;;9.52;5.82;;;;;;;;;;5024837;28;20095;-63
2022/04/12 03:27:46;;;;;;;14.05;6.40;;;;;;;;;;5012998;28;20100;-63
2022/04/12 03:30:11;;;;;;;13.95;6.43;;;;;;;;;;5012402;28;20052;-63
2022/04/12 03:32:37;;;;;;;8.77;6.03;;;;;;;;;;5016876;28;20030;-63
2022/04/12 03:35:03;;;;;;;10.40;6.40;;;;;;;;;;5027268;28;20029;-63
2022/04/12 03:37:28;;;;;;;11.75;6.55;;;;;;;;;;5021146;28;20128;-63
2022/04/12 03:39:55;;;;;;;9.27;5.80;;;;;;;;;;5021827;28;20167;-63
2022/04/12 03:42:21;;;;;;;10.00;6.25;;;;;;;;;;5030002;28;20116;-63
2022/04/12 03:44:46;;;;;;;10.00;6.15;;;;;;;;;;5030839;28;20486;-63
2022/04/12 03:47:12;;;;;;;11.20;6.22;;;;;;;;;;5028936;28;20034;-63
2022/04/12 03:49:38;;;;;;;11.93;5.93;;;;;;;;;;5025365;28;20034;-63
2022/04/12 03:52:04;;;;;;;10.48;6.22;;;;;;;;;;5030320;28;20131;-63
2022/04/12 03:54:30;;;;;;;11.25;6.07;;;;;;;;;;5029298;28;20139;-63
2022/04/12 03:56:55;;;;;;;10.85;6.47;;;;;;;;;;5031162;28;20037;-63
2022/04/12 03:59:21;;;;;;;9.48;6.40;;;;;;;;;;5029374;28;20097;-63
2022/04/12 04:01:46;;;;;;;11.70;6.50;;;;;;;;;;5015437;28;20041;-63
2022/04/12 04:04:12;;;;;;;12.43;6.70;;;;;;;;;;5021084;28;20339;-63
2022/04/12 04:06:38;;;;;;;10.68;5.88;;;;;;;;;;5016945;28;20412;-63
2022/04/12 04:09:03;;;;;;;11.93;6.38;;;;;;;;;;5013206;28;20368;-63
2022/04/12 04:11:29;;;;;;;10.68;6.45;;;;;;;;;;5021524;28;20418;-63
2022/04/12 04:13:55;;;;;;;11.43;6.25;;;;;;;;;;5013075;28;20120;-63
2022/04/12 04:16:21;;;;;;;10.55;6.65;;;;;;;;;;5029231;28;20109;-63
2022/04/12 04:18:46;;;;;;;10.95;6.85;;;;;;;;;;5026303;28;20124;-63
2022/04/12 04:21:11;;;;;;;12.15;6.55;;;;;;;;;;5024510;28;20499;-63
2022/04/12 04:23:37;;;;;;;11.02;6.57;;;;;;;;;;5030417;28;20148;-63
2022/04/12 04:26:03;;;;;;;12.13;6.55;;;;;;;;;;5030492;28;20530;-64
2022/04/12 04:28:30;;;;;;;11.32;6.63;;;;;;;;;;5029092;28;20510;-63
2022/04/12 04:30:56;;;;;;;11.43;6.85;;;;;;;;;;5022250;28;20040;-63
2022/04/12 04:33:22;;;;;;;11.90;6.50;;;;;;;;;;5016034;28;20029;-63
2022/04/12 04:35:48;;;;;;;11.95;6.28;;;;;;;;;;5019722;28;20029;-63
2022/04/12 04:38:14;;;;;;;11.10;6.65;;;;;;;;;;5027351;28;20048;-62
2022/04/12 04:40:39;;;;;;;9.82;6.30;;;;;;;;;;5030732;28;20033;-62
2022/04/12 04:43:06;;;;;;;10.95;6.43;;;;;;;;;;5027320;28;20047;-62
2022/04/12 04:45:31;;;;;;;11.77;6.35;;;;;;;;;;5024152;28;20076;-63
2022/04/12 04:48:01;;;;;;;10.65;6.57;;;;;;;;;;5028328;28;20420;-63
2022/04/12 04:50:30;;;;;;;11.25;6.82;;;;;;;;;;5021056;28;20025;-63
2022/04/12 04:52:56;;;;;;;12.57;6.72;;;;;;;;;;5029019;28;20467;-63
2022/04/12 04:55:22;;;;;;;11.80;7.03;;;;;;;;;;5030141;28;20458;-63
2022/04/12 04:57:48;;;;;;;12.95;7.10;;;;;;;;;;5028342;28;20033;-63
2022/04/12 05:00:16;;;;;;;11.10;6.88;;;;;;;;;;5027065;28;20029;-63
2022/04/12 05:02:46;;;;;;;12.60;6.97;;;;;;;;;;5030081;28;20060;-63
2022/04/12 05:05:13;;;;;;;11.15;6.68;;;;;;;;;;5020807;28;20129;-62
2022/04/12 05:07:39;;;;;;;10.98;7.00;;;;;;;;;;5027203;28;20128;-63
2022/04/12 05:10:06;;;;;;;11.05;6.82;;;;;;;;;;5032229;28;20116;-63
2022/04/12 05:12:31;;;;;;;13.02;7.00;;;;;;;;;;5033735;28;20029;-63
2022/04/12 05:14:57;;;;;;;13.43;7.18;;;;;;;;;;5030594;28;20033;-63
2022/04/12 05:17:26;;;;;;;11.63;6.88;;;;;;;;;;5028146;28;20037;-63
2022/04/12 05:19:52;;;;;;;11.38;6.70;;;;;;;;;;5027176;28;20034;-64
2022/04/12 05:22:17;;;;;;;11.52;6.78;;;;;;;;;;5021732;28;20079;-63
2022/04/12 05:24:43;;;;;;;10.57;6.40;;;;;;;;;;5031487;28;20059;-63
2022/04/12 05:27:09;;;;;;;10.15;6.15;;;;;;;;;;5030661;28;20407;-64
2022/04/12 05:29:34;;;;;;;10.60;6.45;;;;;;;;;;5031203;28;20041;-63
2022/04/12 05:32:00;;;;;;;11.00;6.78;;;;;;;;;;5018679;28;20069;-63
2022/04/12 05:34:25;;;;;;;11.85;6.55;;;;;;;;;;5015184;28;20364;-64
2022/04/12 05:36:51;;;;;;;11.90;6.55;;;;;;;;;;5016962;28;20030;-62
2022/04/12 05:39:16;;;;;;;12.35;6.85;;;;;;;;;;5014947;28;20053;-63
2022/04/12 05:41:41;;;;;;;10.10;6.28;;;;;;;;;;5029789;28;20390;-63
2022/04/12 05:44:07;;;;;;;11.70;6.65;;;;;;;;;;5034316;28;20029;-62
2022/04/12 05:46:33;;;;;;;11.93;6.85;;;;;;;;;;5033166;28;20368;-64
2022/04/12 05:48:58;;;;;;;13.02;6.57;;;;;;;;;;5015615;28;20037;-63
2022/04/12 05:51:23;;;;;;;11.25;6.75;;;;;;;;;;5033507;28;20033;-63
2022/04/12 05:53:49;;;;;;;13.40;6.80;;;;;;;;;;5016744;28;20041;-64
2022/04/12 05:56:14;;;;;;;13.82;6.55;;;;;;;;;;5012877;28;20129;-63
2022/04/12 05:58:40;;;;;;;13.82;6.50;;;;;;;;;;5030152;28;20032;-63
2022/04/12 06:01:06;;;;;;;15.30;6.95;;;;;;;;;;5033320;28;20029;-64
2022/04/12 06:03:32;;;;;;;12.48;6.70;;;;;;;;;;5032223;28;20157;-63
2022/04/12 06:05:57;;;;;;;12.50;6.45;;;;;;;;;;5029445;28;20100;-63
2022/04/12 06:08:22;;;;;;;10.52;6.40;;;;;;;;;;5013503;28;20042;-63
2022/04/12 06:10:48;;;;;;;12.43;7.30;;;;;;;;;;5013272;28;20037;-63
2022/04/12 06:13:13;;;;;;;10.57;6.82;;;;;;;;;;5015633;28;20116;-64
2022/04/12 06:15:39;;;;;;;11.73;7.22;;;;;;;;;;5031790;28;20135;-63
2022/04/12 06:18:04;;;;;;;10.68;6.53;;;;;;;;;;5032810;28;20041;-63
2022/04/12 06:20:30;;;;;;;15.05;7.28;;;;;;;;;;5021133;28;20048;-62
2022/04/12 06:22:55;;;;;;;10.82;6.60;;;;;;;;;;5032592;28;20144;-62
2022/04/12 06:25:21;;;;;;;11.48;6.80;;;;;;;;;;5044385;28;20026;-63
2022/04/12 06:27:51;;;;;;;13.00;7.03;;;;;;;;;;5014990;28;20037;-62
2022/04/12 06:30:25;;;;;;;12.45;6.43;;;;;;;;;;5012724;28;20040;-62
2022/04/12 06:32:52;;;;;;;11.63;6.53;;;;;;;;;;5019131;28;20034;-63
2022/04/12 06:35:17;;;;;;;14.25;7.10;;;;;;;;;;5011882;28;20121;-64
2022/04/12 06:37:45;;;;;;;11.60;6.82;;;;;;;;;;5020953;28;20116;-63
2022/04/12 06:40:12;;;;;;;13.38;6.72;;;;;;;;;;5012493;28;20037;-62
2022/04/12 06:42:38;;;;;;;12.23;6.95;;;;;;;;;;5012280;28;20092;-62
2022/04/12 06:45:04;;;;;;;10.65;6.63;;;;;;;;;;5021839;28;20029;-63
2022/04/12 06:47:29;;;;;;;12.35;6.60;;;;;;;;;;5031498;28;20398;-63
2022/04/12 06:49:55;;;;;;;12.48;6.90;;;;;;;;;;5019773;28;20026;-63
2022/04/12 06:52:22;;;;;;;13.70;7.25;;;;;;;;;;5015956;28;20468;-63
2022/04/12 06:54:49;;;;;;;12.95;7.05;;;;;;;;;;5031360;28;20037;-63
2022/04/12 06:57:14;;;;;;;10.80;6.95;;;;;;;;;;5021435;28;20514;-63
2022/04/12 06:59:40;;;;;;;11.15;6.32;;;;;;;;;;5031824;28;20025;-62
2022/04/12 07:02:06;;;;;;;15.88;7.05;;;;;;;;;;5022569;28;20155;-62
2022/04/12 07:04:31;;;;;;;14.82;7.03;;;;;;;;;;5013141;28;20813;-62
2022/04/12 07:06:57;;;;;;;12.55;6.95;;;;;;;;;;5024472;28;20036;-62
2022/04/12 07:09:27;;;;;;;13.07;7.00;;;;;;;;;;5050144;28;20037;-63
2022/04/12 07:11:59;;;;;;;10.38;6.75;;;;;;;;;;5043700;28;20108;-62
2022/04/12 07:14:26;;;;;;;11.95;6.90;;;;;;;;;;5031654;28;20041;-63
2022/04/12 07:16:52;;;;;;;11.02;7.20;;;;;;;;;;5031066;28;20042;-62
2022/04/12 07:19:17;;;;;;;11.25;7.22;;;;;;;;;;5031988;28;20037;-62
2022/04/12 07:21:43;;;;;;;12.27;7.03;;;;;;;;;;5020146;28;20103;-63
2022/04/12 07:24:09;;;;;;;11.38;6.55;;;;;;;;;;5032714;28;20069;-63
2022/04/12 07:26:36;;;;;;;12.85;6.43;;;;;;;;;;5013431;28;20056;-63
2022/04/12 07:29:02;;;;;;;13.45;6.22;;;;;;;;;;5011913;28;20089;-64
2022/04/12 07:31:28;;;;;;;10.10;5.97;;;;;;;;;;5027088;28;20379;-63
2022/04/12 07:33:55;;;;;;;12.68;5.85;;;;;;;;;;5012919;28;20050;-64
2022/04/12 07:36:20;;;;;;;9.55;5.97;;;;;;;;;;5013780;28;20446;-62
2022/04/12 07:38:48;;;;;;;12.55;5.72;;;;;;;;;;5011628;28;20483;-63
2022/04/12 07:41:14;;;;;;;12.63;5.70;;;;;;;;;;5014915;28;20029;-64
2022/04/12 07:43:39;;;;;;;18.88;6.20;;;;;;;;;;5030104;28;20453;-64
2022/04/12 07:46:04;;;;;;;7.97;5.55;;;;;;;;;;5028399;28;20033;-64
2022/04/12 07:48:31;;;;;;;10.70;5.53;;;;;;;;;;5011854;28;20151;-65
2022/04/12 07:50:57;;;;;;;10.52;5.70;;;;;;;;;;5012218;28;20034;-63
2022/04/12 07:53:22;;;;;;;10.18;5.15;;;;;;;;;;5031314;28;20084;-63
2022/04/12 07:55:48;;;;;;;7.97;4.57;;;;;;;;;;5032159;28;20033;-63
2022/04/12 07:58:15;;;;;;;13.02;4.43;;;;;;;;;;5044120;28;20039;-63
2022/04/12 08:00:40;;;;;;;8.25;4.00;;;;;;;;;;5023626;28;20065;-63
2022/04/12 08:03:07;;;;;;;8.10;3.60;;;;;;;;;;5017287;28;20057;-62
2022/04/12 08:05:34;;;;;;;6.35;3.33;;;;;;;;;;5020886;28;20065;-62
2022/04/12 08:07:59;;;;;;;7.18;3.40;;;;;;;;;;5017691;28;20038;-62
2022/04/12 08:10:24;;;;;;;6.68;3.20;;;;;;;;;;5030359;28;20474;-64
2022/04/12 08:12:52;;;;;;;9.82;3.40;;;;;;;;;;5029993;28;20030;-64
2022/04/12 08:15:18;;;;;;;9.95;3.08;;;;;;;;;;5030351;28;20471;-63
2022/04/12 08:17:44;;;;;;;6.97;3.22;;;;;;;;;;5019439;28;20046;-63
2022/04/12 08:20:11;;;;;;;5.70;3.20;;;;;;;;;;5028087;28;20033;-63
2022/04/12 08:22:36;;;;;;;6.82;3.10;;;;;;;;;;5006450;28;20040;-63
2022/04/12 08:25:03;;;;;;;6.72;3.03;;;;;;;;;;4992388;28;20030;-63
2022/04/12 08:27:29;;;;;;;5.85;3.10;;;;;;;;;;4995475;28;20480;-63
2022/04/12 08:29:55;;;;;;;6.63;3.03;;;;;;;;;;4994798;28;20125;-63
2022/04/12 08:32:21;;;;;;;6.20;2.90;;;;;;;;;;4994233;28;20464;-63
2022/04/12 08:34:47;;;;;;;8.07;2.95;;;;;;;;;;5005943;28;20076;-62
2022/04/12 08:37:12;;;;;;;6.85;2.50;;;;;;;;;;4996964;28;20034;-64
2022/04/12 08:39:38;;;;;;;4.28;2.20;;;;;;;;;;5006662;28;20033;-63
2022/04/12 08:42:04;;;;;;;5.65;2.10;;;;;;;;;;5006387;28;20033;-62
2022/04/12 08:44:32;;;;;;;3.20;2.05;;;;;;;;;;5000386;28;20550;-63
2022/04/12 08:47:00;;;;;;;6.35;2.08;;;;;;;;;;5006099;28;20395;-62
2022/04/12 08:49:27;;;;;;;4.93;2.10;;;;;;;;;;5010618;28;20084;-61
2022/04/12 08:51:52;;;;;;;4.07;2.00;;;;;;;;;;4996651;28;20085;-62
2022/04/12 08:54:19;;;;;;;5.88;1.95;;;;;;;;;;4992787;28;20523;-65
2022/04/12 08:56:48;;;;;;;4.22;2.00;;;;;;;;;;5005753;28;20040;-64
2022/04/12 08:59:13;;;;;;;4.22;1.95;;;;;;;;;;5008502;28;20373;-67
2022/04/12 09:01:39;;;;;;;2.85;1.77;;;;;;;;;;5000356;28;20033;-66
2022/04/12 09:04:05;;;;;;;3.33;1.88;;;;;;;;;;4997848;28;20471;-65
2022/04/12 09:06:30;;;;;;;4.90;1.73;;;;;;;;;;5009579;28;20085;-66
2022/04/12 09:09:09;;;;;;;6.88;1.75;;;;;;;;;;5008847;28;20036;-66
2022/04/12 09:11:35;;;;;;;5.57;1.98;;;;;;;;;;4999550;28;20030;-65
2022/04/12 09:14:00;;;;;;;4.55;1.88;;;;;;;;;;5009743;28;20053;-63
2022/04/12 09:16:28;;;;;;;4.55;1.85;;;;;;;;;;5008410;28;20057;-64
2022/04/12 09:18:55;;;;;;;8.82;2.00;;;;;;;;;;5009816;28;20116;-67
2022/04/12 09:21:23;;;;;;;4.47;2.00;;;;;;;;;;5014844;28;20049;-67
2022/04/12 09:23:52;;;;;;;3.20;1.95;;;;;;;;;;5033511;28;20057;-63
2022/04/12 09:26:28;;;;;;;4.97;1.73;;;;;;;;;;5024326;28;20424;-64
2022/04/12 09:28:56;;;;;;;3.03;1.70;;;;;;;;;;5013800;28;20506;-64
2022/04/12 09:31:22;;;;;;;3.58;1.73;;;;;;;;;;5016524;28;20034;-64
2022/04/12 09:33:49;;;;;;;5.22;1.73;;;;;;;;;;5023852;28;20034;-62
2022/04/12 09:36:15;;;;;;;4.75;1.85;;;;;;;;;;5029561;28;20390;-64
2022/04/12 09:38:42;;;;;;;3.60;1.80;;;;;;;;;;5027057;28;20099;-59
2022/04/12 09:41:19;;;;;;;6.63;1.80;;;;;;;;;;5028587;28;20355;-59
2022/04/12 09:43:51;;;;;;;5.03;1.85;;;;;;;;;;5020212;28;20033;-59
2022/04/12 09:46:17;;;;;;;3.00;1.77;;;;;;;;;;5020413;28;20472;-59
2022/04/12 09:48:48;;;;;;;2.90;1.67;;;;;;;;;;5024918;28;20033;-60
2022/04/12 09:51:14;;;;;;;6.15;1.90;;;;;;;;;;5032496;28;20087;-60
2022/04/12 09:53:41;;;;;;;3.55;1.80;;;;;;;;;;5028233;28;20049;-62
2022/04/12 09:56:20;;;;;;;3.70;1.63;;;;;;;;;;5030301;28;20055;-64
2022/04/12 09:58:50;;;;;;;4.15;1.85;;;;;;;;;;5034978;28;20030;-62
2022/04/12 10:01:17;;;;;;;2.13;1.65;;;;;;;;;;5029489;28;20467;-62
2022/04/12 10:03:54;;;;;;;3.17;1.70;;;;;;;;;;5036367;28;20525;-63
2022/04/12 10:06:25;;;;;;;6.47;1.70;;;;;;;;;;5016310;28;20113;-63
2022/04/12 10:09:01;;;;;;;4.60;1.88;;;;;;;;;;5046668;28;20067;-63
2022/04/12 10:11:26;;;;;;;5.15;1.98;;;;;;;;;;5032202;28;20411;-63
2022/04/12 10:13:53;;;;;;;4.90;1.70;;;;;;;;;;5036381;28;20025;-63
2022/04/12 10:16:21;;;;;;;3.28;1.77;;;;;;;;;;5053962;28;20118;-62
2022/04/12 10:18:47;;;;;;;2.33;1.50;;;;;;;;;;5040629;28;20072;-63
2022/04/12 10:21:14;;;;;;;4.18;1.90;;;;;;;;;;5031587;28;20518;-63
2022/04/12 10:23:53;;;;;;;2.03;1.52;;;;;;;;;;5033450;28;20029;-62
2022/04/12 10:26:24;;;;;;;3.85;1.50;;;;;;;;;;5033009;28;20060;-62
2022/04/12 10:29:04;;;;;;;3.40;1.70;;;;;;;;;;5032442;28;20045;-63
2022/04/12 10:31:31;;;;;;;3.53;1.90;;;;;;;;;;5050115;28;20036;-63
2022/04/12 10:34:14;;;;;;;3.92;1.65;;;;;;;;;;5051760;28;20029;-63
2022/04/12 10:36:55;;;;;;;4.32;1.80;;;;;;;;;;5030416;28;20046;-62
2022/04/12 10:39:33;;;;;;;4.07;1.60;;;;;;;;;;5017057;28;20073;-63
2022/04/12 10:42:08;;;;;;;7.93;2.15;;;;;;;;;;5053888;28;20040;-63
2022/04/12 10:44:45;;;;;;;10.18;1.60;;;;;;;;;;5023342;28;20034;-63
2022/04/12 10:47:24;;;;;;;5.68;1.70;;;;;;;;;;5032318;28;20032;-63
2022/04/12 10:50:14;;;;;;;4.68;1.90;;;;;;;;;;5019469;28;20038;-63
2022/04/12 10:52:48;;;;;;;7.30;1.50;;;;;;;;;;5014827;28;20053;-63
2022/04/12 10:55:28;;;;;;;3.70;1.70;;;;;;;;;;5027423;28;20033;-63
2022/04/12 10:58:09;;;;;;;2.20;1.60;;;;;;;;;;5017826;28;20030;-63
2022/04/12 11:00:36;;;;;;;3.53;1.63;;;;;;;;;;5025012;28;20030;-63
2022/04/12 11:03:01;;;;;;;2.53;1.50;;;;;;;;;;5013306;28;20041;-63
2022/04/12 11:05:32;;;;;;;4.30;1.80;;;;;;;;;;5015505;28;20038;-63
2022/04/12 11:07:58;;;;;;;4.07;1.73;;;;;;;;;;5013876;28;20026;-63
2022/04/12 11:10:24;;;;;;;7.30;1.80;;;;;;;;;;5020836;28;20416;-64
2022/04/12 11:13:04;;;;;;;8.77;1.90;;;;;;;;;;5030896;28;20489;-63
2022/04/12 11:15:31;;;;;;;4.03;1.70;;;;;;;;;;5013768;28;20042;-64
2022/04/12 11:18:13;;;;;;;6.22;1.90;;;;;;;;;;5033151;28;20034;-64
2022/04/12 11:20:43;;;;;;;5.15;1.90;;;;;;;;;;5017317;28;20115;-63
2022/04/12 11:23:12;;;;;;;3.63;1.60;;;;;;;;;;5026698;28;20030;-64
2022/04/12 11:25:51;;;;;;;4.47;1.60;;;;;;;;;;5012013;28;20475;-64
2022/04/12 11:28:24;;;;;;;2.88;1.58;;;;;;;;;;5022930;28;20037;-63
2022/04/12 11:30:58;;;;;;;4.70;1.80;;;;;;;;;;5022989;28;20041;-63
2022/04/12 11:33:28;;;;;;;2.28;1.60;;;;;;;;;;5013552;28;20041;-63
2022/04/12 11:35:55;;;;;;;11.05;1.98;;;;;;;;;;5028672;28;20038;-63
2022/04/12 11:38:22;;;;;;;7.88;1.80;;;;;;;;;;5012224;28;20037;-64
2022/04/12 11:40:48;;;;;;;4.25;2.10;;;;;;;;;;5011773;28;20105;-63
2022/04/12 11:43:27;;;;;;;2.83;1.70;;;;;;;;;;5012571;28;20033;-63
2022/04/12 11:45:54;;;;;;;4.07;1.63;;;;;;;;;;5023772;28;20140;-63
2022/04/12 11:48:20;;;;;;;6.00;1.77;;;;;;;;;;5029770;28;20037;-64
2022/04/12 11:50:50;;;;;;;3.10;1.70;;;;;;;;;;5019318;28;20481;-65
2022/04/12 11:53:16;;;;;;;6.18;1.70;;;;;;;;;;5026124;28;20476;-64
2022/04/12 11:55:45;;;;;;;7.15;1.80;;;;;;;;;;5022198;28;20040;-64
2022/04/12 11:58:10;;;;;;;3.55;1.52;;;;;;;;;;5010556;28;20061;-64
2022/04/12 12:00:35;;;;;;;5.97;1.77;;;;;;;;;;5015576;28;20065;-64
2022/04/12 12:03:01;;;;;;;3.80;1.50;;;;;;;;;;5017422;28;20076;-63
2022/04/12 12:05:26;;;;;;;3.20;1.45;;;;;;;;;;5025131;28;20041;-63
2022/04/12 12:07:58;;;;;;;2.63;1.52;;;;;;;;;;5015422;28;20124;-64
2022/04/12 12:10:23;;;;;;;8.48;1.80;;;;;;;;;;5012297;28;20038;-63
2022/04/12 12:12:49;;;;;;;9.57;1.55;;;;;;;;;;5018641;28;20157;-64
2022/04/12 12:15:30;;;;;;;3.55;1.35;;;;;;;;;;5026064;28;20029;-62
2022/04/12 12:18:01;;;;;;;6.38;1.55;;;;;;;;;;5029738;28;20084;-63
2022/04/12 12:20:29;;;;;;;8.18;1.63;;;;;;;;;;5018254;28;20890;-64
2022/04/12 12:23:03;;;;;;;2.72;1.40;;;;;;;;;;5030164;28;20037;-63
2022/04/12 12:25:41;;;;;;;3.78;1.52;;;;;;;;;;5033325;28;20044;-63
2022/04/12 12:28:15;;;;;;;2.33;1.40;;;;;;;;;;5033860;28;20040;-60
2022/04/12 12:30:44;;;;;;;3.10;1.60;;;;;;;;;;5033949;28;20056;-60
2022/04/12 12:33:10;;;;;;;5.13;1.60;;;;;;;;;;5034104;28;20432;-60
2022/04/12 12:35:41;;;;;;;3.88;1.55;;;;;;;;;;5030051;28;20026;-60
2022/04/12 12:38:12;;;;;;;4.38;1.70;;;;;;;;;;5037797;28;20087;-59
2022/04/12 12:40:38;;;;;;;8.75;1.30;;;;;;;;;;5050271;28;20029;-60
2022/04/12 12:43:06;;;;;;;2.45;1.35;;;;;;;;;;5050484;28;20038;-61
2022/04/12 12:45:34;;;;;;;4.22;1.50;;;;;;;;;;5051074;28;20032;-60
2022/04/12 12:47:59;;;;;;;3.85;1.60;;;;;;;;;;5031077;28;20049;-59
2022/04/12 12:50:26;;;;;;;4.13;1.60;;;;;;;;;;5031380;28;20029;-59
2022/04/12 12:53:00;;;;;;;2.45;1.50;;;;;;;;;;5029960;28;20017;-58
2022/04/12 12:55:31;;;;;;;2.78;1.50;;;;;;;;;;5031741;28;20065;-59
2022/04/12 12:58:03;;;;;;;3.90;1.40;;;;;;;;;;5032270;28;20025;-59
2022/04/12 13:00:30;;;;;;;4.78;1.50;;;;;;;;;;5032250;28;20044;-59
2022/04/12 13:03:17;;;;;;;3.20;1.70;;;;;;;;;;5034765;28;20479;-59
2022/04/12 13:05:55;;;;;;;4.15;1.58;;;;;;;;;;5027946;28;20387;-59
2022/04/12 13:08:27;;;;;;;3.20;1.52;;;;;;;;;;5011308;28;20046;-59
2022/04/12 13:10:56;;;;;;;3.47;1.60;;;;;;;;;;5021568;28;20104;-60
2022/04/12 13:13:21;;;;;;;3.78;1.45;;;;;;;;;;5010680;28;20088;-59
2022/04/12 13:15:47;;;;;;;2.13;1.60;;;;;;;;;;5013741;28;20116;-59
2022/04/12 13:18:12;;;;;;;4.82;1.70;;;;;;;;;;5003614;28;20056;-59
2022/04/12 13:20:38;;;;;;;5.03;1.65;;;;;;;;;;5013968;28;20050;-59
2022/04/12 13:23:03;;;;;;;3.53;1.70;;;;;;;;;;5014656;28;20037;-59
2022/04/12 13:25:30;;;;;;;2.28;1.38;;;;;;;;;;5034249;28;20163;-59
2022/04/12 13:27:56;;;;;;;5.80;1.70;;;;;;;;;;5033707;28;20847;-59
2022/04/12 13:30:22;;;;;;;6.22;1.55;;;;;;;;;;5040947;28;20031;-59
2022/04/12 13:32:48;;;;;;;2.95;1.60;;;;;;;;;;5020297;28;20026;-59
2022/04/12 13:35:17;;;;;;;3.22;1.65;;;;;;;;;;5035852;28;20025;-59
2022/04/12 13:37:43;;;;;;;4.38;1.70;;;;;;;;;;5016800;28;20109;-61
2022/04/12 13:40:10;;;;;;;4.32;1.60;;;;;;;;;;5015001;28;20029;-60
2022/04/12 13:42:37;;;;;;;5.53;1.80;;;;;;;;;;5014772;28;20152;-60
2022/04/12 13:45:04;;;;;;;4.05;1.60;;;;;;;;;;5016299;28;20022;-59
2022/04/12 13:47:29;;;;;;;5.95;1.63;;;;;;;;;;5013946;28;20111;-63
2022/04/12 13:49:56;;;;;;;6.15;1.52;;;;;;;;;;5025070;28;20022;-59
2022/04/12 13:52:25;;;;;;;4.50;1.55;;;;;;;;;;5028575;28;20037;-58
2022/04/12 13:54:52;;;;;;;6.63;1.70;;;;;;;;;;5032473;28;20033;-58
2022/04/12 13:57:18;;;;;;;7.55;1.70;;;;;;;;;;5013637;28;20037;-60
2022/04/12 13:59:44;;;;;;;2.88;1.60;;;;;;;;;;5038829;28;20029;-60
2022/04/12 14:02:09;;;;;;;3.17;1.42;;;;;;;;;;5024895;28;20033;-58
2022/04/12 14:04:35;;;;;;;3.15;1.75;;;;;;;;;;5033591;28;20030;-58
2022/04/12 14:07:00;;;;;;;4.63;1.58;;;;;;;;;;5030282;28;20122;-58
2022/04/12 14:09:26;;;;;;;2.88;1.45;;;;;;;;;;5033712;28;20040;-57
2022/04/12 14:11:51;;;;;;;5.82;1.52;;;;;;;;;;5032156;28;20025;-58
2022/04/12 14:14:17;;;;;;;2.00;1.60;;;;;;;;;;5039308;28;20035;-59
2022/04/12 14:16:45;;;;;;;2.33;1.50;;;;;;;;;;5052072;28;20040;-56
2022/04/12 14:19:12;;;;;;;2.67;1.50;;;;;;;;;;5046099;28;20025;-57
2022/04/12 14:21:37;;;;;;;3.13;1.52;;;;;;;;;;5032119;28;20495;-59
2022/04/12 14:24:03;;;;;;;5.22;1.65;;;;;;;;;;5032554;28;20034;-57
2022/04/12 14:26:28;;;;;;;2.55;1.38;;;;;;;;;;5033973;28;20047;-57
2022/04/12 14:28:54;;;;;;;3.80;1.70;;;;;;;;;;5033714;28;20030;-58
2022/04/12 14:31:19;;;;;;;3.30;1.50;;;;;;;;;;5027108;28;20454;-58
2022/04/12 14:33:45;;;;;;;2.72;1.60;;;;;;;;;;5024418;28;20428;-59
2022/04/12 14:36:10;;;;;;;3.35;1.48;;;;;;;;;;5033637;28;20041;-57
2022/04/12 14:38:37;;;;;;;4.22;1.48;;;;;;;;;;5032278;28;20087;-59
2022/04/12 14:41:03;;;;;;;5.32;1.42;;;;;;;;;;5032797;28;20033;-56